Time;durP1;ratioP1;P1;durP2;ratioP2;P2;SDS_P1;SDS_P2;PMS_P1;PMS_P2;Temp;Humidity;BMP_temperature;BMP_pressure;BME280_temperature;BME280_humidity;BME280_pressure;Samples;Min_cycle;Max_cycle;Signal;HPM_P1;HPM_P2
2022/10/10 00:01:29;;;;;;;39.07;34.60;;;22.80;99.90;;;;;;5097297;28;20214;-94
2022/10/10 00:04:03;;;;;;;38.40;34.27;;;22.70;99.90;;;;;;5098421;28;20278;-94
2022/10/10 00:06:35;;;;;;;40.03;34.30;;;22.60;99.90;;;;;;5096278;28;20233;-93
2022/10/10 00:09:07;;;;;;;42.60;37.37;;;22.50;99.90;;;;;;5099422;28;20218;-93
2022/10/10 00:11:39;;;;;;;41.20;35.27;;;22.50;99.90;;;;;;5096399;28;20207;-93
2022/10/10 00:14:10;;;;;;;39.23;35.10;;;22.40;99.90;;;;;;5096295;28;20195;-93
2022/10/10 00:16:42;;;;;;;39.63;35.30;;;22.30;99.90;;;;;;5098771;28;20578;-93
2022/10/10 00:19:16;;;;;;;38.80;34.67;;;22.30;99.90;;;;;;5078382;28;20222;-93
2022/10/10 00:21:47;;;;;;;41.43;36.03;;;22.30;99.90;;;;;;5095522;28;20748;-94
2022/10/10 00:24:18;;;;;;;39.40;34.33;;;22.20;99.90;;;;;;5097946;28;20203;-93
2022/10/10 00:26:50;;;;;;;39.43;34.93;;;22.10;99.90;;;;;;5098019;28;20241;-93
2022/10/10 00:29:21;;;;;;;38.77;34.70;;;22.00;99.90;;;;;;5097522;28;20678;-92
2022/10/10 00:31:53;;;;;;;40.20;34.43;;;21.90;99.90;;;;;;5096846;28;20405;-93
2022/10/10 00:34:26;;;;;;;38.60;34.30;;;21.70;99.90;;;;;;5079566;28;20214;-93
2022/10/10 00:36:57;;;;;;;39.03;34.87;;;21.70;99.90;;;;;;5097088;28;20659;-93
2022/10/10 00:39:28;;;;;;;40.03;35.57;;;21.60;99.90;;;;;;5078756;28;20215;-93
2022/10/10 00:41:59;;;;;;;43.27;34.97;;;21.50;99.90;;;;;;5095036;28;20203;-94
2022/10/10 00:44:31;;;;;;;40.40;35.97;;;21.30;99.90;;;;;;5095805;28;20211;-93
2022/10/10 00:47:02;;;;;;;41.97;37.47;;;21.10;99.90;;;;;;5094942;28;20230;-93
2022/10/10 00:49:40;;;;;;;41.73;37.20;;;20.90;99.90;;;;;;5095240;28;20218;-93
2022/10/10 00:52:12;;;;;;;41.40;36.90;;;20.80;99.90;;;;;;5094216;28;20203;-93
2022/10/10 00:54:43;;;;;;;42.33;37.00;;;20.60;99.90;;;;;;5095282;28;20207;-93
2022/10/10 00:57:15;;;;;;;40.33;35.23;;;20.40;99.90;;;;;;5095086;28;20202;-92
2022/10/10 00:59:48;;;;;;;41.33;36.73;;;20.30;99.90;;;;;;4758592;28;9999631;-93
2022/10/10 01:02:18;;;;;;;39.90;35.57;;;20.20;99.90;;;;;;5114104;28;20213;-94
2022/10/10 01:04:51;;;;;;;39.97;34.60;;;20.10;99.90;;;;;;5114527;28;20214;-92
2022/10/10 01:07:26;;;;;;;42.93;34.47;;;20.00;99.90;;;;;;5114705;28;20226;-94
2022/10/10 01:10:00;;;;;;;41.70;35.10;;;19.90;99.90;;;;;;5114775;28;20198;-91
2022/10/10 01:12:42;;;;;;;42.63;35.03;;;19.80;99.90;;;;;;5115690;28;20205;-93
2022/10/10 01:15:22;;;;;;;41.77;34.77;;;19.80;99.90;;;;;;5120383;28;20206;-93
2022/10/10 01:17:58;;;;;;;39.17;34.07;;;19.70;99.90;;;;;;5115781;28;20206;-92
2022/10/10 01:20:51;;;;;;;41.73;35.63;;;19.70;99.90;;;;;;5114664;28;20221;-93
2022/10/10 01:23:53;;;;;;;45.53;35.30;;;19.60;99.90;;;;;;5114696;28;20221;-92
2022/10/10 01:26:49;;;;;;;45.93;36.87;;;19.50;99.90;;;;;;5117956;28;20205;-93
2022/10/10 01:29:30;;;;;;;42.33;35.53;;;19.40;99.90;;;;;;5113982;28;20912;-93
2022/10/10 01:32:06;;;;;;;41.87;35.37;;;19.30;99.90;;;;;;5114366;28;20232;-93
2022/10/10 01:34:47;;;;;;;39.13;34.27;;;19.20;99.90;;;;;;5115420;28;20228;-93
2022/10/10 01:37:20;;;;;;;44.23;36.13;;;19.10;99.90;;;;;;5115368;28;20206;-92
2022/10/10 01:40:01;;;;;;;42.50;35.40;;;19.00;99.90;;;;;;5097428;28;20210;-93
2022/10/10 01:42:38;;;;;;;45.57;35.93;;;18.80;99.90;;;;;;5098964;28;20217;-92
2022/10/10 01:45:12;;;;;;;40.90;35.00;;;18.60;99.90;;;;;;5118342;28;20205;-93
2022/10/10 01:47:45;;;;;;;43.50;35.13;;;18.50;99.90;;;;;;5115149;28;20241;-92
2022/10/10 01:50:22;;;;;;;41.27;34.27;;;18.40;99.90;;;;;;5117828;28;20218;-92
2022/10/10 01:53:03;;;;;;;42.30;34.77;;;18.30;99.90;;;;;;5116331;28;20251;-92
2022/10/10 01:55:51;;;;;;;44.23;33.67;;;18.20;99.90;;;;;;5116719;28;20320;-94
2022/10/10 01:58:49;;;;;;;42.63;33.30;;;18.20;99.90;;;;;;5098091;28;20524;-93
2022/10/10 02:01:27;;;;;;;36.57;32.47;;;18.00;99.90;;;;;;5120266;28;20280;-93
2022/10/10 02:04:08;;;;;;;40.07;32.53;;;17.90;99.90;;;;;;5121398;28;20217;-94
2022/10/10 02:06:45;;;;;;;39.27;32.60;;;17.80;99.90;;;;;;5117449;28;20545;-92
2022/10/10 02:09:23;;;;;;;39.70;32.60;;;17.80;99.90;;;;;;5117582;28;20410;-93
2022/10/10 02:11:56;;;;;;;48.33;33.77;;;17.70;99.90;;;;;;5118744;28;20204;-92
2022/10/10 02:14:32;;;;;;;43.03;34.03;;;17.70;99.90;;;;;;5114978;28;20202;-91
2022/10/10 02:17:17;;;;;;;42.57;32.87;;;17.60;99.90;;;;;;5118279;28;20695;-92
2022/10/10 02:19:52;;;;;;;39.90;32.60;;;17.50;99.90;;;;;;5121132;28;20210;-92
2022/10/10 02:22:26;;;;;;;40.23;32.97;;;17.50;99.90;;;;;;5124275;28;20193;-92
2022/10/10 02:24:58;;;;;;;38.57;32.63;;;17.40;99.90;;;;;;5122863;28;20206;-91
2022/10/10 02:27:36;;;;;;;38.00;31.93;;;17.30;99.90;;;;;;5119194;28;20909;-93
2022/10/10 02:30:09;;;;;;;39.97;32.60;;;17.30;99.90;;;;;;5101267;28;20202;-92
2022/10/10 02:32:47;;;;;;;38.37;32.37;;;17.20;99.90;;;;;;5118901;28;20202;-93
2022/10/10 02:35:21;;;;;;;37.87;33.10;;;17.20;99.90;;;;;;5119542;28;20285;-91
2022/10/10 02:37:54;;;;;;;37.60;33.20;;;17.10;99.90;;;;;;5120422;28;20210;-92
2022/10/10 02:40:29;;;;;;;37.20;33.10;;;17.10;99.90;;;;;;5119472;28;20233;-92
2022/10/10 02:43:03;;;;;;;43.00;33.50;;;17.00;99.90;;;;;;5102654;28;20201;-93
2022/10/10 02:45:35;;;;;;;44.23;35.50;;;16.90;99.90;;;;;;5118324;28;20694;-93
2022/10/10 02:48:08;;;;;;;40.13;34.37;;;16.90;99.90;;;;;;5119163;28;20260;-92
2022/10/10 02:50:39;;;;;;;41.17;33.37;;;16.80;99.90;;;;;;5118703;28;20619;-93
2022/10/10 02:53:11;;;;;;;40.83;34.70;;;16.80;99.90;;;;;;5117537;28;20217;-92
2022/10/10 02:55:42;;;;;;;43.53;36.20;;;16.70;99.90;;;;;;5117965;28;20202;-92
2022/10/10 02:58:13;;;;;;;40.67;34.93;;;16.70;99.90;;;;;;5118229;28;20656;-93
2022/10/10 03:00:44;;;;;;;46.87;37.80;;;16.70;99.90;;;;;;5118569;28;20630;-92
2022/10/10 03:03:18;;;;;;;44.13;35.33;;;16.60;99.90;;;;;;5117738;28;20623;-92
2022/10/10 03:05:50;;;;;;;42.20;36.33;;;16.60;99.90;;;;;;5118019;28;20202;-93
2022/10/10 03:08:21;;;;;;;47.13;37.30;;;16.50;99.90;;;;;;5117915;28;20233;-93
2022/10/10 03:10:57;;;;;;;44.87;36.07;;;16.50;99.90;;;;;;5118268;28;20212;-92
2022/10/10 03:13:28;;;;;;;43.67;37.60;;;16.50;99.90;;;;;;5119427;28;20225;-92
2022/10/10 03:15:59;;;;;;;43.37;36.47;;;16.40;99.90;;;;;;5120507;28;20205;-92
2022/10/10 03:18:33;;;;;;;46.70;37.77;;;16.30;99.90;;;;;;5118194;28;20190;-92
2022/10/10 03:21:06;;;;;;;44.93;37.73;;;16.30;99.90;;;;;;5136371;28;20549;-92
2022/10/10 03:23:38;;;;;;;47.63;39.10;;;16.30;99.90;;;;;;5133075;28;20213;-92
2022/10/10 03:26:12;;;;;;;46.33;39.93;;;16.20;99.90;;;;;;5113631;28;20214;-92
2022/10/10 03:28:43;;;;;;;51.13;41.23;;;16.20;99.90;;;;;;5103039;28;20222;-91
2022/10/10 03:31:14;;;;;;;52.50;43.03;;;16.10;99.90;;;;;;5132732;28;20190;-94
2022/10/10 03:33:48;;;;;;;53.70;43.77;;;16.10;99.90;;;;;;5138330;28;20202;-93
2022/10/10 03:36:19;;;;;;;54.53;45.57;;;16.00;99.90;;;;;;5115788;28;20208;-93
2022/10/10 03:38:51;;;;;;;55.73;45.37;;;16.00;99.90;;;;;;5128791;28;20206;-93
2022/10/10 03:41:23;;;;;;;58.33;44.63;;;15.90;99.90;;;;;;5121203;28;20204;-94
2022/10/10 03:43:54;;;;;;;56.00;44.70;;;15.90;99.90;;;;;;5119539;28;20209;-92
2022/10/10 03:46:26;;;;;;;54.77;45.80;;;15.80;99.90;;;;;;5118432;28;20224;-93
2022/10/10 03:49:00;;;;;;;55.40;46.33;;;15.80;99.90;;;;;;5116273;28;20233;-92
2022/10/10 03:51:31;;;;;;;58.57;46.87;;;15.80;99.90;;;;;;5100270;28;20217;-93
2022/10/10 03:54:05;;;;;;;57.63;46.03;;;15.70;99.90;;;;;;5116155;28;20225;-92
2022/10/10 03:56:36;;;;;;;57.67;47.67;;;15.70;99.90;;;;;;5116750;28;20210;-93
2022/10/10 03:59:08;;;;;;;57.07;47.27;;;15.60;99.90;;;;;;5118048;28;20223;-92
2022/10/10 04:01:39;;;;;;;60.00;46.97;;;15.60;99.90;;;;;;5102156;28;20212;-92
2022/10/10 04:04:14;;;;;;;63.13;48.97;;;15.60;99.90;;;;;;5117311;28;20210;-93
2022/10/10 04:06:47;;;;;;;60.03;47.73;;;15.50;99.90;;;;;;5119004;28;20723;-93
2022/10/10 04:09:18;;;;;;;59.60;47.87;;;15.50;99.90;;;;;;5117024;28;20308;-93
2022/10/10 04:11:50;;;;;;;62.50;48.30;;;15.50;99.90;;;;;;5102115;28;20198;-92
2022/10/10 04:14:21;;;;;;;62.13;48.27;;;15.50;99.90;;;;;;5116577;28;20206;-93
2022/10/10 04:16:52;;;;;;;61.13;46.77;;;15.40;99.90;;;;;;5116707;28;20214;-92
2022/10/10 04:19:31;;;;;;;56.43;48.00;;;15.40;99.90;;;;;;5116698;28;20205;-93
2022/10/10 04:22:03;;;;;;;56.67;46.23;;;15.40;99.90;;;;;;5117517;28;20618;-93
2022/10/10 04:24:40;;;;;;;59.40;47.30;;;15.40;99.90;;;;;;5124526;28;20220;-92
2022/10/10 04:27:11;;;;;;;59.13;45.00;;;15.40;99.90;;;;;;5121755;28;20214;-93
2022/10/10 04:29:42;;;;;;;59.37;46.57;;;15.30;99.90;;;;;;5116026;28;20234;-92
2022/10/10 04:32:13;;;;;;;56.43;46.13;;;15.20;99.90;;;;;;5114664;28;20631;-92
2022/10/10 04:34:46;;;;;;;57.43;44.80;;;15.20;99.90;;;;;;5115878;28;20198;-93
2022/10/10 04:37:17;;;;;;;55.93;45.50;;;15.20;99.90;;;;;;5115606;28;20202;-93
2022/10/10 04:39:49;;;;;;;58.37;46.03;;;15.20;99.90;;;;;;5115951;28;20224;-92
2022/10/10 04:42:20;;;;;;;57.90;44.83;;;15.10;99.90;;;;;;5114821;28;20216;-92
2022/10/10 04:44:52;;;;;;;56.83;45.47;;;15.10;99.90;;;;;;5115546;28;20209;-93
2022/10/10 04:47:23;;;;;;;55.53;45.00;;;15.00;99.90;;;;;;5115684;28;20218;-93
2022/10/10 04:49:57;;;;;;;54.07;44.57;;;15.00;99.90;;;;;;5116845;28;20230;-93
2022/10/10 04:52:28;;;;;;;56.40;46.17;;;14.90;99.90;;;;;;5114177;28;20213;-92
2022/10/10 04:54:59;;;;;;;57.90;45.47;;;14.90;99.90;;;;;;5115324;28;20655;-92
2022/10/10 04:57:31;;;;;;;52.63;43.60;;;14.90;99.90;;;;;;5115932;28;20214;-93
2022/10/10 05:00:02;;;;;;;53.83;44.70;;;14.90;99.90;;;;;;5098048;28;20210;-93
2022/10/10 05:02:34;;;;;;;56.80;46.13;;;14.80;99.90;;;;;;5114590;28;20206;-93
2022/10/10 05:05:09;;;;;;;52.90;43.93;;;14.80;99.90;;;;;;5097860;28;20542;-90
2022/10/10 05:07:40;;;;;;;58.37;44.60;;;14.80;99.90;;;;;;5114876;28;20202;-92
2022/10/10 05:10:11;;;;;;;57.60;44.93;;;14.70;99.90;;;;;;5115392;28;20252;-91
2022/10/10 05:12:42;;;;;;;60.83;47.47;;;14.70;99.90;;;;;;5115108;28;20198;-93
2022/10/10 05:15:13;;;;;;;59.83;46.90;;;14.60;99.90;;;;;;5115062;28;20295;-92
2022/10/10 05:17:45;;;;;;;56.93;46.43;;;14.60;99.90;;;;;;5114475;28;20978;-93
2022/10/10 05:20:18;;;;;;;60.97;47.97;;;14.60;99.90;;;;;;5114626;28;20206;-92
2022/10/10 05:22:49;;;;;;;58.07;45.63;;;14.60;99.90;;;;;;5114102;28;20229;-93
2022/10/10 05:25:21;;;;;;;59.87;47.07;;;14.50;99.90;;;;;;5097398;28;20719;-92
2022/10/10 05:27:53;;;;;;;57.17;46.70;;;14.50;99.90;;;;;;5114821;28;20206;-92
2022/10/10 05:30:24;;;;;;;56.33;45.40;;;14.50;99.90;;;;;;5114696;28;20226;-93
2022/10/10 05:32:56;;;;;;;56.47;46.07;;;14.50;99.90;;;;;;5114027;28;20658;-92
2022/10/10 05:35:30;;;;;;;59.93;44.57;;;14.50;99.90;;;;;;5097974;28;20205;-92
2022/10/10 05:38:02;;;;;;;54.57;43.33;;;14.40;99.90;;;;;;5114868;28;20198;-92
2022/10/10 05:40:33;;;;;;;59.67;45.17;;;14.40;99.90;;;;;;5097173;28;20213;-92
2022/10/10 05:43:04;;;;;;;55.73;43.13;;;14.40;99.90;;;;;;5114660;28;20198;-93
2022/10/10 05:45:36;;;;;;;54.30;44.37;;;14.30;99.90;;;;;;5115204;28;20202;-92
2022/10/10 05:48:07;;;;;;;57.10;44.40;;;14.30;99.90;;;;;;5097058;28;20210;-93
2022/10/10 05:50:48;;;;;;;56.50;42.43;;;14.30;99.90;;;;;;5114813;28;20225;-93
2022/10/10 05:53:20;;;;;;;55.90;43.60;;;14.30;99.90;;;;;;5113735;28;20674;-92
2022/10/10 05:55:51;;;;;;;54.97;41.63;;;14.30;99.90;;;;;;5115267;28;20208;-93
2022/10/10 05:58:23;;;;;;;52.60;41.63;;;14.20;99.90;;;;;;5114747;28;20578;-92
2022/10/10 06:00:56;;;;;;;54.93;42.97;;;14.20;99.90;;;;;;5114933;28;20616;-93
2022/10/10 06:03:27;;;;;;;53.80;43.30;;;14.20;99.90;;;;;;5113810;28;20582;-92
2022/10/10 06:06:00;;;;;;;56.10;41.47;;;14.20;99.90;;;;;;5118159;28;20212;-93
2022/10/10 06:08:31;;;;;;;51.70;41.23;;;14.10;99.90;;;;;;5118215;28;20654;-92
2022/10/10 06:11:05;;;;;;;54.23;42.43;;;14.10;99.90;;;;;;5118383;28;20245;-92
2022/10/10 06:13:40;;;;;;;55.80;42.53;;;14.10;99.90;;;;;;5117957;28;20202;-93
2022/10/10 06:16:12;;;;;;;57.03;43.40;;;14.10;99.90;;;;;;5121237;28;20198;-93
2022/10/10 06:18:43;;;;;;;57.03;42.97;;;14.00;99.90;;;;;;5100486;28;20202;-92
2022/10/10 06:21:18;;;;;;;52.83;41.60;;;14.00;99.90;;;;;;5119280;28;20259;-92
2022/10/10 06:23:49;;;;;;;54.13;42.37;;;14.00;99.90;;;;;;5117662;28;20206;-92
2022/10/10 06:26:21;;;;;;;52.43;42.63;;;13.90;99.90;;;;;;5118159;28;20202;-92
2022/10/10 06:28:52;;;;;;;54.87;42.93;;;13.90;99.90;;;;;;5119076;28;20198;-93
2022/10/10 06:31:24;;;;;;;55.30;42.43;;;13.90;99.90;;;;;;5118924;28;20234;-92
2022/10/10 06:33:55;;;;;;;56.97;42.80;;;13.80;99.90;;;;;;5099737;28;20210;-92
2022/10/10 06:36:30;;;;;;;55.43;42.40;;;13.80;99.90;;;;;;5100416;28;20255;-92
2022/10/10 06:39:01;;;;;;;55.17;41.17;;;13.80;99.90;;;;;;5117797;28;20202;-93
2022/10/10 06:41:33;;;;;;;53.20;42.30;;;13.70;99.90;;;;;;5116502;28;20206;-92
2022/10/10 06:44:05;;;;;;;53.43;42.40;;;13.70;99.90;;;;;;5100269;28;20267;-92
2022/10/10 06:46:37;;;;;;;53.97;42.67;;;13.70;99.90;;;;;;5107895;28;20242;-92
2022/10/10 06:49:09;;;;;;;55.07;43.33;;;13.60;99.90;;;;;;5102625;28;20279;-93
2022/10/10 06:51:42;;;;;;;54.90;44.23;;;13.50;99.90;;;;;;5117556;28;20238;-92
2022/10/10 06:54:13;;;;;;;55.37;43.20;;;13.50;99.90;;;;;;5117633;28;20199;-93
2022/10/10 06:56:45;;;;;;;53.53;42.77;;;13.50;99.90;;;;;;5117445;28;20209;-93
2022/10/10 06:59:16;;;;;;;56.80;43.90;;;13.50;99.90;;;;;;5086954;28;20215;-92
2022/10/10 07:01:47;;;;;;;55.47;44.63;;;13.60;99.90;;;;;;5096566;28;20643;-93
2022/10/10 07:04:18;;;;;;;58.33;44.70;;;13.50;99.90;;;;;;5096674;28;20285;-93
2022/10/10 07:06:52;;;;;;;54.93;44.97;;;13.40;99.90;;;;;;5096633;28;20342;-93
2022/10/10 07:09:23;;;;;;;57.50;44.97;;;13.40;99.90;;;;;;5097115;28;20206;-92
2022/10/10 07:11:54;;;;;;;55.27;43.83;;;13.40;99.90;;;;;;5095572;28;20270;-91
2022/10/10 07:14:27;;;;;;;60.30;45.30;;;13.30;99.90;;;;;;5097064;28;20593;-92
2022/10/10 07:16:59;;;;;;;54.83;44.93;;;13.30;99.90;;;;;;5096954;28;20218;-93
2022/10/10 07:19:30;;;;;;;56.93;43.93;;;13.30;99.90;;;;;;5079307;28;20217;-93
2022/10/10 07:22:03;;;;;;;58.37;45.43;;;13.20;99.90;;;;;;5095686;28;20626;-92
2022/10/10 07:24:36;;;;;;;56.10;44.63;;;13.20;99.90;;;;;;5078974;28;20206;-91
2022/10/10 07:27:08;;;;;;;56.00;46.13;;;13.20;99.90;;;;;;5079708;28;20206;-93
2022/10/10 07:29:40;;;;;;;62.87;46.43;;;13.20;99.90;;;;;;5079168;28;20226;-92
2022/10/10 07:32:13;;;;;;;61.20;46.43;;;13.10;99.90;;;;;;5095140;28;20241;-91
2022/10/10 07:34:44;;;;;;;60.33;46.93;;;13.10;99.90;;;;;;5096546;28;20199;-93
2022/10/10 07:37:18;;;;;;;58.73;47.37;;;13.10;99.90;;;;;;5096740;28;20211;-92
2022/10/10 07:39:49;;;;;;;60.07;47.07;;;13.00;99.90;;;;;;5096210;28;20218;-92
2022/10/10 07:42:20;;;;;;;65.53;48.33;;;13.00;99.90;;;;;;5096098;28;20226;-92
2022/10/10 07:44:51;;;;;;;61.57;47.57;;;13.00;99.90;;;;;;5079118;28;20215;-92
2022/10/10 07:47:22;;;;;;;60.60;47.73;;;13.00;99.90;;;;;;5096002;28;20211;-92
2022/10/10 07:49:54;;;;;;;64.57;49.90;;;13.00;99.90;;;;;;5096472;28;20219;-93
2022/10/10 07:52:27;;;;;;;61.97;48.80;;;12.90;99.90;;;;;;5095106;28;20230;-93
2022/10/10 07:54:58;;;;;;;60.93;47.23;;;12.90;99.90;;;;;;5078770;28;20199;-93
2022/10/10 07:57:33;;;;;;;60.37;47.50;;;12.90;99.90;;;;;;5096386;28;20663;-92
2022/10/10 08:00:06;;;;;;;60.53;47.87;;;12.90;99.90;;;;;;5079189;28;20199;-92
2022/10/10 08:02:37;;;;;;;57.70;47.73;;;12.90;99.90;;;;;;5094738;28;20648;-91
2022/10/10 08:05:11;;;;;;;62.43;47.97;;;12.90;99.90;;;;;;5078520;28;20203;-93
2022/10/10 08:07:45;;;;;;;57.53;46.67;;;12.90;99.90;;;;;;5095693;28;20640;-92
2022/10/10 08:10:15;;;;;;;59.27;46.70;;;12.80;99.90;;;;;;5096396;28;20229;-93
2022/10/10 08:12:46;;;;;;;62.40;47.47;;;12.80;99.90;;;;;;5094598;28;20234;-91
2022/10/10 08:15:18;;;;;;;57.77;46.93;;;12.80;99.90;;;;;;5096675;28;20226;-92
2022/10/10 08:17:49;;;;;;;60.23;46.63;;;12.80;99.90;;;;;;5096233;28;20213;-93
2022/10/10 08:20:21;;;;;;;57.80;46.00;;;12.80;99.90;;;;;;5097117;28;20225;-93
2022/10/10 08:22:55;;;;;;;58.77;47.17;;;12.70;99.90;;;;;;5097703;28;20222;-93
2022/10/10 08:25:26;;;;;;;60.47;48.07;;;12.70;99.90;;;;;;5116242;28;20263;-92
2022/10/10 08:27:57;;;;;;;57.13;46.13;;;12.70;99.90;;;;;;5094994;28;20677;-93
2022/10/10 08:30:28;;;;;;;55.97;45.90;;;12.70;99.90;;;;;;5109938;28;20281;-92
2022/10/10 08:33:00;;;;;;;57.13;46.70;;;12.60;99.90;;;;;;5107206;28;20254;-92
2022/10/10 08:35:31;;;;;;;60.10;47.93;;;12.70;99.90;;;;;;5098561;28;20198;-91
2022/10/10 08:38:04;;;;;;;58.20;47.50;;;12.70;99.90;;;;;;5095459;28;20266;-92
2022/10/10 08:40:35;;;;;;;61.97;48.93;;;12.70;99.90;;;;;;5095513;28;20233;-93
2022/10/10 08:43:10;;;;;;;61.77;48.37;;;12.60;99.90;;;;;;5061365;28;20214;-92
2022/10/10 08:45:41;;;;;;;64.00;50.03;;;12.60;99.90;;;;;;5095289;28;20221;-93
2022/10/10 08:48:17;;;;;;;63.17;49.40;;;12.60;99.90;;;;;;5095536;28;20225;-93
2022/10/10 08:50:52;;;;;;;59.97;48.33;;;12.60;99.90;;;;;;5095863;28;20221;-92
2022/10/10 08:53:33;;;;;;;66.63;51.93;;;12.60;99.90;;;;;;5095849;28;20796;-92
2022/10/10 08:56:08;;;;;;;65.83;50.23;;;12.60;99.90;;;;;;5106000;28;20206;-94
2022/10/10 08:58:44;;;;;;;62.50;50.00;;;12.60;99.90;;;;;;5121335;28;20289;-93
2022/10/10 09:01:19;;;;;;;66.03;50.57;;;12.60;99.90;;;;;;5137349;28;20233;-92
2022/10/10 09:03:57;;;;;;;65.10;50.63;;;12.50;99.90;;;;;;5117919;28;20186;-92
2022/10/10 09:06:56;;;;;;;66.90;50.37;;;12.50;99.90;;;;;;5130791;28;20200;-93
2022/10/10 09:09:37;;;;;;;68.40;53.03;;;12.50;99.90;;;;;;5133401;28;20275;-94
2022/10/10 09:12:25;;;;;;;63.87;51.03;;;12.50;99.90;;;;;;5131819;28;20656;-93
2022/10/10 09:15:03;;;;;;;68.20;52.30;;;12.50;99.90;;;;;;5119623;28;20194;-91
2022/10/10 09:17:42;;;;;;;69.63;53.43;;;12.50;99.90;;;;;;5120569;28;20566;-92
2022/10/10 09:20:28;;;;;;;69.50;53.37;;;12.40;99.90;;;;;;5101891;28;20214;-90
2022/10/10 09:23:03;;;;;;;70.27;54.13;;;12.40;99.90;;;;;;5133743;28;20208;-93
2022/10/10 09:25:44;;;;;;;66.80;53.33;;;12.40;99.90;;;;;;5134970;28;20304;-92
2022/10/10 09:28:21;;;;;;;68.60;53.87;;;12.40;99.90;;;;;;5132612;28;20588;-92
2022/10/10 09:30:56;;;;;;;68.33;52.83;;;12.40;99.90;;;;;;5133691;28;20206;-93
2022/10/10 09:33:36;;;;;;;69.93;54.37;;;12.40;99.90;;;;;;5133159;28;20226;-91
2022/10/10 09:36:13;;;;;;;72.07;55.87;;;12.30;99.90;;;;;;5132366;28;20294;-92
2022/10/10 09:38:49;;;;;;;68.97;55.10;;;12.30;99.90;;;;;;5131995;28;20212;-93
2022/10/10 09:41:32;;;;;;;68.57;55.40;;;12.40;99.90;;;;;;5125168;28;20214;-92
2022/10/10 09:44:07;;;;;;;68.67;53.10;;;12.30;99.90;;;;;;5120516;28;20217;-92
2022/10/10 09:46:39;;;;;;;68.27;54.90;;;12.30;99.90;;;;;;5119962;28;20209;-92
2022/10/10 09:49:15;;;;;;;66.70;54.67;;;12.30;99.90;;;;;;5119413;28;20210;-92
2022/10/10 09:51:46;;;;;;;62.67;51.60;;;12.20;99.90;;;;;;5118529;28;20237;-93
2022/10/10 09:54:20;;;;;;;67.73;51.93;;;12.20;99.90;;;;;;5119234;28;20205;-92
2022/10/10 09:56:56;;;;;;;69.63;53.23;;;12.20;99.90;;;;;;5118921;28;20655;-93
2022/10/10 09:59:48;;;;;;;68.67;54.47;;;12.10;99.90;;;;;;5118774;28;20217;-93
2022/10/10 10:02:22;;;;;;;70.17;52.27;;;12.10;99.90;;;;;;5115466;28;20317;-92
2022/10/10 10:04:55;;;;;;;66.07;53.77;;;12.10;99.90;;;;;;5118680;28;20214;-92
2022/10/10 10:07:30;;;;;;;67.17;51.90;;;12.10;99.90;;;;;;5118894;28;20227;-92
2022/10/10 10:10:03;;;;;;;68.80;53.70;;;12.10;99.90;;;;;;5118694;28;20202;-93
2022/10/10 10:12:43;;;;;;;66.30;53.07;;;12.10;99.90;;;;;;5117364;28;20233;-92
2022/10/10 10:15:20;;;;;;;68.17;55.23;;;12.10;99.90;;;;;;5118698;28;20217;-93
2022/10/10 10:18:11;;;;;;;68.07;55.23;;;12.10;99.90;;;;;;5118444;28;20572;-92
2022/10/10 10:20:44;;;;;;;71.97;54.23;;;12.10;99.90;;;;;;5118864;28;20202;-92
2022/10/10 10:23:26;;;;;;;68.53;54.40;;;12.10;99.90;;;;;;5099805;28;20214;-92
2022/10/10 10:26:01;;;;;;;70.40;55.83;;;12.10;99.90;;;;;;5118506;28;20202;-91
2022/10/10 10:28:41;;;;;;;68.57;55.27;;;12.10;99.90;;;;;;5118368;28;20205;-91
2022/10/10 10:31:21;;;;;;;71.77;55.77;;;12.10;99.90;;;;;;5118188;28;20255;-91
2022/10/10 10:34:04;;;;;;;73.83;56.73;;;12.00;99.90;;;;;;5100103;28;20237;-92
2022/10/10 10:36:46;;;;;;;72.37;57.00;;;12.10;99.90;;;;;;5100305;28;20213;-93
2022/10/10 10:39:30;;;;;;;75.00;57.47;;;12.10;99.90;;;;;;5118384;28;20206;-92
2022/10/10 10:42:10;;;;;;;68.90;57.23;;;12.00;99.90;;;;;;5117029;28;20206;-92
2022/10/10 10:44:50;;;;;;;73.57;57.63;;;11.90;99.90;;;;;;5118151;28;20201;-92
2022/10/10 10:47:39;;;;;;;74.87;58.70;;;11.90;99.90;;;;;;5117661;28;20657;-92
2022/10/10 10:50:26;;;;;;;76.47;57.47;;;11.90;99.90;;;;;;5116863;28;20680;-92
2022/10/10 10:53:09;;;;;;;73.80;56.37;;;11.90;99.90;;;;;;5099283;28;20225;-92
2022/10/10 10:55:46;;;;;;;75.63;56.63;;;11.90;99.90;;;;;;5117298;28;20213;-91
2022/10/10 10:58:58;;;;;;;70.17;55.83;;;11.90;99.90;;;;;;5117676;28;20239;-92
2022/10/10 11:02:00;;;;;;;72.37;56.13;;;11.90;99.90;;;;;;5110504;28;20206;-93
2022/10/10 11:05:01;;;;;;;75.03;56.37;;;11.90;99.90;;;;;;5100286;28;20579;-92
2022/10/10 11:08:01;;;;;;;68.30;56.13;;;11.80;99.90;;;;;;5118193;28;20206;-92
2022/10/10 11:10:37;;;;;;;69.93;55.93;;;11.80;99.90;;;;;;5084377;28;20217;-91
2022/10/10 11:13:15;;;;;;;66.60;54.33;;;11.80;99.90;;;;;;5116218;28;20245;-92
2022/10/10 11:15:52;;;;;;;72.50;56.67;;;11.80;99.90;;;;;;5117583;28;20253;-92
2022/10/10 11:18:45;;;;;;;68.67;57.03;;;11.80;99.90;;;;;;5117691;28;20233;-92
2022/10/10 11:21:21;;;;;;;69.93;56.97;;;11.70;99.90;;;;;;5116940;28;20202;-92
2022/10/10 11:23:59;;;;;;;67.13;54.13;;;11.70;99.90;;;;;;5101957;28;20210;-93
2022/10/10 11:26:34;;;;;;;67.67;55.30;;;11.70;99.90;;;;;;5122240;28;20198;-91
2022/10/10 11:29:11;;;;;;;67.90;55.90;;;11.70;99.90;;;;;;5100617;28;20226;-92
2022/10/10 11:31:48;;;;;;;66.27;57.20;;;11.70;99.90;;;;;;5116387;28;20208;-97
2022/10/10 11:34:26;;;;;;;71.87;57.43;;;11.70;99.90;;;;;;5119574;28;20237;-92
2022/10/10 11:37:02;;;;;;;72.20;57.57;;;11.70;99.90;;;;;;5118730;28;20206;-92
2022/10/10 11:39:40;;;;;;;70.37;55.33;;;11.70;99.90;;;;;;5118458;28;20201;-93
2022/10/10 11:42:20;;;;;;;71.53;56.53;;;11.80;99.90;;;;;;5118235;28;20233;-93
2022/10/10 11:44:57;;;;;;;67.77;55.43;;;11.80;99.90;;;;;;5102181;28;20233;-93
2022/10/10 11:47:33;;;;;;;67.27;54.37;;;11.70;99.90;;;;;;5116468;28;20210;-92
2022/10/10 11:50:17;;;;;;;67.47;55.07;;;11.70;99.90;;;;;;5119117;28;20202;-92
2022/10/10 11:52:56;;;;;;;68.83;53.57;;;11.60;99.90;;;;;;5101728;28;20230;-92
2022/10/10 11:55:34;;;;;;;71.90;55.73;;;11.60;99.90;;;;;;5119275;28;20224;-92
2022/10/10 11:58:30;;;;;;;73.07;55.13;;;11.50;99.90;;;;;;5116531;28;20213;-92
2022/10/10 12:01:07;;;;;;;69.30;54.83;;;11.50;99.90;;;;;;5116468;28;20203;-92
2022/10/10 12:03:38;;;;;;;73.57;56.93;;;11.50;99.90;;;;;;5115264;28;20725;-93
2022/10/10 12:06:18;;;;;;;69.77;55.87;;;11.50;99.90;;;;;;5116760;28;20259;-91
2022/10/10 12:08:57;;;;;;;70.57;56.43;;;11.50;99.90;;;;;;5116826;28;20252;-92
2022/10/10 12:11:35;;;;;;;69.27;54.93;;;11.50;99.90;;;;;;5116628;28;20228;-91
2022/10/10 12:14:11;;;;;;;73.37;57.17;;;11.50;99.90;;;;;;5115270;28;20248;-92
2022/10/10 12:16:42;;;;;;;70.20;54.67;;;11.50;99.90;;;;;;5116131;28;20214;-92
2022/10/10 12:19:20;;;;;;;72.17;55.00;;;11.40;99.90;;;;;;5098214;28;20209;-92
2022/10/10 12:22:03;;;;;;;71.37;55.73;;;11.40;99.90;;;;;;5097646;28;20254;-91
2022/10/10 12:24:36;;;;;;;71.10;54.60;;;11.40;99.90;;;;;;5098699;28;20237;-92
2022/10/10 12:27:45;;;;;;;69.37;56.13;;;11.30;99.90;;;;;;5115975;28;20228;-92
2022/10/10 12:30:26;;;;;;;69.67;54.23;;;11.30;99.90;;;;;;5116880;28;20205;-92
2022/10/10 12:32:58;;;;;;;65.80;54.10;;;11.30;99.90;;;;;;5115280;28;20655;-92
2022/10/10 12:35:40;;;;;;;64.93;53.70;;;11.30;99.90;;;;;;5116223;28;20570;-92
2022/10/10 12:38:20;;;;;;;70.67;55.17;;;11.30;99.90;;;;;;5116134;28;20663;-92
2022/10/10 12:41:18;;;;;;;73.33;54.87;;;11.20;99.90;;;;;;5115792;28;20214;-92
2022/10/10 12:44:19;;;;;;;66.73;53.57;;;11.20;99.90;;;;;;5091601;28;20201;-92
2022/10/10 12:47:31;;;;;;;64.77;53.43;;;11.10;99.90;;;;;;5115637;28;20633;-93
2022/10/10 12:50:27;;;;;;;69.73;54.73;;;11.10;99.90;;;;;;5115458;28;20213;-92
2022/10/10 12:53:01;;;;;;;70.00;54.97;;;11.10;99.90;;;;;;5114320;28;20198;-92
2022/10/10 12:55:44;;;;;;;69.47;54.20;;;11.10;99.90;;;;;;5115393;28;20311;-91
2022/10/10 12:58:20;;;;;;;65.50;52.70;;;11.10;99.90;;;;;;5115651;28;20201;-92
2022/10/10 13:00:58;;;;;;;70.80;54.20;;;11.10;99.90;;;;;;5115887;28;20208;-92
2022/10/10 13:03:35;;;;;;;66.47;52.97;;;11.10;99.90;;;;;;5115047;28;20236;-92
2022/10/10 13:06:15;;;;;;;66.77;52.33;;;11.10;99.90;;;;;;5097861;28;20217;-92
2022/10/10 13:08:46;;;;;;;64.73;52.80;;;11.10;99.90;;;;;;5116061;28;20221;-92